LFCR

Rodez-Marcillac Airport

Airport
ICAO code
LFCR
IATA Code
RDZ
Summary
ICAO Region
EUR
ICAO Territory
Location

, Midi-Pyrenees

Serving
Rodez
Elevation
1910 ft
Coordinates
44° 24' 28" N , 2° 28' 58" E
Metar
Observation
LFCR 030230Z AUTO 00000KT 9999 OVC031 02/M00 Q1010 NOSIG
Station
Rodez
Date/Time
2022-12-03 02:30:00
Wind direction
Wind speed
00 kts
Lowest cloud amount
overcast
Temperature
2°C
Dew point
-0°C
Humidity
86%
QNH
1010 hPa
Weather condition
n/a

Runways

Designator Length Width Surface Rops
13/31 2040 45 ASP No/No

Airport map

Aerial View

SKYbrary Partners:

Safety knowledge contributed by: